Time;durP1;ratioP1;P1;durP2;ratioP2;P2;SDS_P1;SDS_P2;PMS_P1;PMS_P2;Temp;Humidity;BMP_temperature;BMP_pressure;BME280_temperature;BME280_humidity;BME280_pressure;Samples;Min_cycle;Max_cycle;Signal;HPM_P1;HPM_P2
2023/04/03 00:01:13;;;;;;;3.92;1.10;;;3.10;99.90;;;;;;4999061;28;20050;-81
2023/04/03 00:03:41;;;;;;;5.05;1.20;;;3.10;99.90;;;;;;4998527;28;20054;-81
2023/04/03 00:06:08;;;;;;;4.30;1.50;;;3.10;99.90;;;;;;4998516;28;20054;-81
2023/04/03 00:08:34;;;;;;;5.43;1.48;;;3.10;99.90;;;;;;4998544;28;20133;-81
2023/04/03 00:11:00;;;;;;;3.22;1.10;;;3.00;99.90;;;;;;5016260;28;20050;-81
2023/04/03 00:13:26;;;;;;;3.67;1.20;;;3.00;99.90;;;;;;4998498;28;20515;-81
2023/04/03 00:15:52;;;;;;;2.50;1.25;;;3.00;99.90;;;;;;4998516;28;20521;-81
2023/04/03 00:18:18;;;;;;;3.33;1.15;;;2.90;99.90;;;;;;4998268;28;20115;-81
2023/04/03 00:20:43;;;;;;;3.30;1.20;;;2.90;99.90;;;;;;4998388;28;20473;-81
2023/04/03 00:23:09;;;;;;;3.28;1.60;;;3.00;99.90;;;;;;5016345;28;20038;-81
2023/04/03 00:25:36;;;;;;;3.88;1.27;;;2.90;99.90;;;;;;4998220;28;20501;-81
2023/04/03 00:28:02;;;;;;;8.43;1.60;;;2.90;99.90;;;;;;5014891;28;20065;-81
2023/04/03 00:30:28;;;;;;;4.15;1.00;;;2.90;99.90;;;;;;4998242;28;20046;-81
2023/04/03 00:32:54;;;;;;;6.43;1.70;;;2.80;99.90;;;;;;4998313;28;20042;-81
2023/04/03 00:35:21;;;;;;;3.03;1.17;;;2.70;99.90;;;;;;5015432;28;20038;-81
2023/04/03 00:37:47;;;;;;;2.08;1.02;;;2.70;99.90;;;;;;5015833;28;20046;-81
2023/04/03 00:40:15;;;;;;;4.03;1.42;;;2.70;99.90;;;;;;4998001;28;20049;-81
2023/04/03 00:42:43;;;;;;;3.88;1.38;;;2.70;99.90;;;;;;4998129;28;20104;-81
2023/04/03 00:45:18;;;;;;;4.38;1.33;;;2.60;99.90;;;;;;4997854;28;20034;-81
2023/04/03 00:47:44;;;;;;;2.65;1.13;;;2.60;99.90;;;;;;5015309;28;20045;-81
2023/04/03 00:50:10;;;;;;;3.15;1.05;;;2.60;99.90;;;;;;4997903;28;20052;-81
2023/04/03 00:52:37;;;;;;;2.75;1.00;;;2.60;99.90;;;;;;4997766;28;20042;-81
2023/04/03 00:55:07;;;;;;;3.03;1.02;;;2.60;99.90;;;;;;4998015;28;20474;-81
2023/04/03 00:57:33;;;;;;;2.58;1.05;;;2.50;99.90;;;;;;4997963;28;20049;-81
2023/04/03 01:00:11;;;;;;;3.85;1.30;;;2.50;99.90;;;;;;4997700;28;20427;-81
2023/04/03 01:02:37;;;;;;;3.60;1.00;;;2.50;99.90;;;;;;4997818;28;20062;-81
2023/04/03 01:05:04;;;;;;;3.15;0.90;;;2.40;99.90;;;;;;4997498;28;20045;-80
2023/04/03 01:07:31;;;;;;;4.15;1.20;;;2.50;99.90;;;;;;4997413;28;20081;-81
2023/04/03 01:10:03;;;;;;;1.88;0.63;;;2.40;99.90;;;;;;4997700;28;20108;-80
2023/04/03 01:12:37;;;;;;;2.97;1.17;;;2.40;99.90;;;;;;4997508;28;20037;-81
2023/04/03 01:15:07;;;;;;;3.83;1.20;;;2.40;99.90;;;;;;4997561;28;20038;-81
2023/04/03 01:17:48;;;;;;;2.33;0.90;;;2.40;99.90;;;;;;4997168;28;20417;-81
2023/04/03 01:20:35;;;;;;;3.65;0.70;;;2.30;99.90;;;;;;4997365;28;20042;-80
2023/04/03 01:23:12;;;;;;;4.72;1.13;;;2.30;99.90;;;;;;4997111;28;20049;-81
2023/04/03 01:25:41;;;;;;;3.05;0.95;;;2.30;99.90;;;;;;4997042;28;20184;-81
2023/04/03 01:28:11;;;;;;;4.53;1.08;;;2.20;99.90;;;;;;4997003;28;20537;-81
2023/04/03 01:30:57;;;;;;;5.57;1.10;;;2.20;99.90;;;;;;5014760;28;20054;-81
2023/04/03 01:33:23;;;;;;;4.13;1.08;;;2.20;99.90;;;;;;4996910;28;20401;-81
2023/04/03 01:35:49;;;;;;;3.92;1.00;;;2.10;99.90;;;;;;4996905;28;20045;-81
2023/04/03 01:38:14;;;;;;;3.20;0.70;;;2.10;99.90;;;;;;4996979;28;20070;-81
2023/04/03 01:40:40;;;;;;;2.30;0.93;;;2.10;99.90;;;;;;4996356;28;20048;-81
2023/04/03 01:43:06;;;;;;;5.35;1.33;;;2.00;99.90;;;;;;5014425;28;20461;-81
2023/04/03 01:45:31;;;;;;;4.57;0.93;;;2.00;99.90;;;;;;5014442;28;20572;-81
2023/04/03 01:47:57;;;;;;;5.65;1.13;;;2.00;99.90;;;;;;4996637;28;20046;-81
2023/04/03 01:50:22;;;;;;;1.63;0.77;;;2.00;99.90;;;;;;4997015;28;20437;-81
2023/04/03 01:52:48;;;;;;;2.60;0.60;;;1.90;99.90;;;;;;4997005;28;20438;-81
2023/04/03 01:55:14;;;;;;;3.17;1.13;;;1.90;99.90;;;;;;4996734;28;20069;-81
2023/04/03 01:57:40;;;;;;;3.15;0.95;;;1.90;99.90;;;;;;4996694;28;20046;-81
2023/04/03 02:00:07;;;;;;;5.80;0.98;;;1.90;99.90;;;;;;4996344;28;20053;-81
2023/04/03 02:02:33;;;;;;;4.75;1.23;;;1.90;99.90;;;;;;4996729;28;20046;-81
2023/04/03 02:04:59;;;;;;;5.18;2.05;;;1.80;99.90;;;;;;4996377;28;20460;-81
2023/04/03 02:07:25;;;;;;;4.90;1.17;;;1.80;99.90;;;;;;4996397;28;20046;-81
2023/04/03 02:09:50;;;;;;;4.07;1.13;;;1.80;99.90;;;;;;4996436;28;20046;-81
2023/04/03 02:12:16;;;;;;;4.03;0.85;;;1.80;99.90;;;;;;4996490;28;20061;-81
2023/04/03 02:14:42;;;;;;;3.22;1.15;;;1.80;99.90;;;;;;4996551;28;20058;-81
2023/04/03 02:17:08;;;;;;;4.10;0.98;;;1.80;99.90;;;;;;4996276;28;20238;-81
2023/04/03 02:19:37;;;;;;;3.72;1.00;;;1.70;99.90;;;;;;4996276;28;20084;-81
2023/04/03 02:22:03;;;;;;;2.13;1.10;;;1.70;99.90;;;;;;4996429;28;20061;-81
2023/04/03 02:24:29;;;;;;;6.18;1.00;;;1.70;99.90;;;;;;4996235;28;20233;-81
2023/04/03 02:26:55;;;;;;;6.55;1.20;;;1.70;99.90;;;;;;4995977;28;20158;-81
2023/04/03 02:29:21;;;;;;;5.28;1.10;;;1.60;99.90;;;;;;4996114;28;20482;-81
2023/04/03 02:31:47;;;;;;;5.93;1.20;;;1.60;99.90;;;;;;4996254;28;20559;-81
2023/04/03 02:34:13;;;;;;;4.05;1.75;;;1.50;99.90;;;;;;4996340;28;20034;-81
2023/04/03 02:36:38;;;;;;;3.35;1.38;;;1.50;99.90;;;;;;4995881;28;20042;-81
2023/04/03 02:39:05;;;;;;;6.65;1.50;;;1.50;99.90;;;;;;4996438;28;20052;-81
2023/04/03 02:41:35;;;;;;;3.25;1.70;;;1.50;99.90;;;;;;4996371;28;20140;-81
2023/04/03 02:44:05;;;;;;;5.38;1.40;;;1.40;99.90;;;;;;4996175;28;20069;-81
2023/04/03 02:46:31;;;;;;;5.47;1.10;;;1.40;99.90;;;;;;4995892;28;20046;-81
2023/04/03 02:48:57;;;;;;;4.28;1.48;;;1.40;99.90;;;;;;4995987;28;20048;-81
2023/04/03 02:51:23;;;;;;;5.03;1.10;;;1.40;99.90;;;;;;4997880;28;20129;-81
2023/04/03 02:53:49;;;;;;;5.07;1.20;;;1.30;99.90;;;;;;5000186;28;20045;-81
2023/04/03 02:56:16;;;;;;;5.28;1.50;;;1.30;99.90;;;;;;5000152;28;20527;-81
2023/04/03 02:58:42;;;;;;;4.45;1.40;;;1.30;99.90;;;;;;4999912;28;20055;-81
2023/04/03 03:01:09;;;;;;;5.97;1.25;;;1.30;99.90;;;;;;4999793;28;20046;-81
2023/04/03 03:03:37;;;;;;;8.35;1.58;;;1.20;99.90;;;;;;4999743;28;20078;-81
2023/04/03 03:06:04;;;;;;;3.92;1.25;;;1.20;99.90;;;;;;4999705;28;20073;-81
2023/04/03 03:08:30;;;;;;;5.38;1.27;;;1.20;99.90;;;;;;4999681;28;20108;-81
2023/04/03 03:10:55;;;;;;;6.30;1.30;;;1.10;99.90;;;;;;4999556;28;20041;-81
2023/04/03 03:13:21;;;;;;;4.28;1.27;;;1.10;99.90;;;;;;4999502;28;20088;-81
2023/04/03 03:15:46;;;;;;;3.80;1.48;;;1.10;99.90;;;;;;4999808;28;20045;-81
2023/04/03 03:18:12;;;;;;;5.43;1.30;;;1.10;99.90;;;;;;4999776;28;20390;-81
2023/04/03 03:20:38;;;;;;;5.95;1.40;;;1.10;99.90;;;;;;4999475;28;20042;-81
2023/04/03 03:23:03;;;;;;;3.60;1.40;;;1.10;99.90;;;;;;4999562;28;20096;-81
2023/04/03 03:25:29;;;;;;;3.30;1.40;;;1.10;99.90;;;;;;4999335;28;20049;-81
2023/04/03 03:27:55;;;;;;;5.85;1.63;;;1.10;99.90;;;;;;4999021;28;20575;-81
2023/04/03 03:30:20;;;;;;;4.75;1.27;;;1.00;99.90;;;;;;4999138;28;20115;-81
2023/04/03 03:32:46;;;;;;;3.95;1.30;;;1.00;99.90;;;;;;5016800;28;20050;-81
2023/04/03 03:35:12;;;;;;;5.20;1.40;;;1.00;99.90;;;;;;4999492;28;20413;-81
2023/04/03 03:37:37;;;;;;;3.83;1.40;;;1.00;99.90;;;;;;4999356;28;20433;-81
2023/04/03 03:40:03;;;;;;;7.13;2.00;;;0.90;99.90;;;;;;4999351;28;20048;-81
2023/04/03 03:42:29;;;;;;;6.43;1.90;;;0.90;99.90;;;;;;4998945;28;20107;-81
2023/04/03 03:44:55;;;;;;;8.00;1.60;;;0.90;99.90;;;;;;4999238;28;20061;-81
2023/04/03 03:47:20;;;;;;;4.40;1.60;;;0.90;99.90;;;;;;4998929;28;20120;-81
2023/04/03 03:49:46;;;;;;;3.80;1.45;;;0.90;99.90;;;;;;4999191;28;20053;-81
2023/04/03 03:52:11;;;;;;;4.22;1.30;;;0.80;99.90;;;;;;4998989;28;20410;-81
2023/04/03 03:54:38;;;;;;;6.65;1.35;;;0.80;99.90;;;;;;4999021;28;20042;-81
2023/04/03 03:57:03;;;;;;;4.63;1.45;;;0.80;99.90;;;;;;4998924;28;20045;-81
2023/04/03 03:59:29;;;;;;;3.95;1.58;;;0.80;99.90;;;;;;4998754;28;20048;-81
2023/04/03 04:01:55;;;;;;;8.00;1.40;;;0.80;99.90;;;;;;4998818;28;20046;-82
2023/04/03 04:04:21;;;;;;;8.63;1.95;;;0.80;99.90;;;;;;4998231;28;20100;-82
2023/04/03 04:06:46;;;;;;;7.30;1.83;;;0.80;99.90;;;;;;4998570;28;20449;-82
2023/04/03 04:09:12;;;;;;;4.80;1.73;;;0.80;99.90;;;;;;4998583;28;20055;-81
2023/04/03 04:11:39;;;;;;;4.88;1.70;;;0.80;99.90;;;;;;4998389;28;20103;-81
2023/04/03 04:14:06;;;;;;;5.03;2.22;;;0.80;99.90;;;;;;4998640;28;20128;-82
2023/04/03 04:16:31;;;;;;;7.32;1.77;;;0.80;99.90;;;;;;4998411;28;20050;-81
2023/04/03 04:18:57;;;;;;;5.70;1.63;;;0.80;99.90;;;;;;4998665;28;20053;-81
2023/04/03 04:21:22;;;;;;;7.32;1.80;;;0.80;99.90;;;;;;4998555;28;20370;-82
2023/04/03 04:23:48;;;;;;;7.03;1.90;;;0.80;99.90;;;;;;4998602;28;20077;-81
2023/04/03 04:26:14;;;;;;;11.55;2.05;;;0.80;99.90;;;;;;4998097;28;20189;-81
2023/04/03 04:28:39;;;;;;;8.23;2.65;;;0.80;99.90;;;;;;5015631;28;20065;-81
2023/04/03 04:31:10;;;;;;;6.07;2.10;;;0.70;99.90;;;;;;4998132;28;20045;-81
2023/04/03 04:33:35;;;;;;;10.02;1.98;;;0.70;99.90;;;;;;4998089;28;20054;-81
2023/04/03 04:36:01;;;;;;;7.00;2.53;;;0.70;99.90;;;;;;4998370;28;20049;-81
2023/04/03 04:38:26;;;;;;;6.43;1.73;;;0.70;99.90;;;;;;4998082;28;20089;-81
2023/04/03 04:40:52;;;;;;;5.07;1.85;;;0.60;99.90;;;;;;5015565;28;20129;-81
2023/04/03 04:43:18;;;;;;;7.35;1.90;;;0.60;99.90;;;;;;4997855;28;20052;-81
2023/04/03 04:45:43;;;;;;;6.25;1.65;;;0.60;99.90;;;;;;4997834;28;20041;-81
2023/04/03 04:48:09;;;;;;;6.60;2.08;;;0.60;99.90;;;;;;4997793;28;20085;-81
2023/04/03 04:50:35;;;;;;;6.15;1.73;;;0.60;99.90;;;;;;4998109;28;20128;-81
2023/04/03 04:53:00;;;;;;;5.22;2.38;;;0.70;99.90;;;;;;4997898;28;20446;-81
2023/04/03 04:55:26;;;;;;;4.95;1.85;;;0.60;99.90;;;;;;4997749;28;20038;-81
2023/04/03 04:57:52;;;;;;;6.55;1.90;;;0.60;99.90;;;;;;4997004;28;20449;-81
2023/04/03 05:00:18;;;;;;;7.18;2.35;;;0.60;99.90;;;;;;5014401;28;20046;-81
2023/04/03 05:02:43;;;;;;;5.10;1.75;;;0.60;99.90;;;;;;5015053;28;20046;-81
2023/04/03 05:05:09;;;;;;;7.82;2.33;;;0.60;99.90;;;;;;4997385;28;20042;-81
2023/04/03 05:07:35;;;;;;;12.43;2.05;;;0.60;99.90;;;;;;4997222;28;20050;-81
2023/04/03 05:10:02;;;;;;;7.20;2.03;;;0.60;99.90;;;;;;4997310;28;20046;-81
2023/04/03 05:12:28;;;;;;;6.60;2.63;;;0.60;99.90;;;;;;4997426;28;20132;-81
2023/04/03 05:14:54;;;;;;;6.55;2.28;;;0.60;99.90;;;;;;4997421;28;20398;-81
2023/04/03 05:17:20;;;;;;;8.05;3.17;;;0.60;99.90;;;;;;4997068;28;20038;-81
2023/04/03 05:19:45;;;;;;;8.23;2.50;;;0.60;99.90;;;;;;5014743;28;20104;-81
2023/04/03 05:22:11;;;;;;;8.52;1.95;;;0.70;99.90;;;;;;5014512;28;20057;-81
2023/04/03 05:24:36;;;;;;;5.50;2.03;;;0.70;99.90;;;;;;5014806;28;20124;-81
2023/04/03 05:27:02;;;;;;;8.10;2.65;;;0.70;99.90;;;;;;4996588;28;20058;-81
2023/04/03 05:29:34;;;;;;;6.68;2.15;;;0.70;99.90;;;;;;4997252;28;20086;-81
2023/04/03 05:32:00;;;;;;;7.30;2.38;;;0.70;99.90;;;;;;4997295;28;20054;-81
2023/04/03 05:34:25;;;;;;;9.25;2.90;;;0.70;99.90;;;;;;4996855;28;20046;-81
2023/04/03 05:36:51;;;;;;;6.55;2.65;;;0.80;99.90;;;;;;4996677;28;20053;-81
2023/04/03 05:39:17;;;;;;;9.45;3.25;;;0.80;99.90;;;;;;5014341;28;20070;-81
2023/04/03 05:41:42;;;;;;;9.75;3.75;;;0.80;99.90;;;;;;4996906;28;20065;-81
2023/04/03 05:44:08;;;;;;;8.23;2.63;;;0.90;99.90;;;;;;4996377;28;20053;-82
2023/04/03 05:46:34;;;;;;;8.85;2.65;;;1.00;99.90;;;;;;4996605;28;20034;-82
2023/04/03 05:49:00;;;;;;;9.05;2.78;;;1.10;99.90;;;;;;5014027;28;20129;-82
2023/04/03 05:51:30;;;;;;;6.70;2.40;;;1.20;99.90;;;;;;4996740;28;20030;-81
2023/04/03 05:54:13;;;;;;;12.63;3.15;;;1.20;99.90;;;;;;4996600;28;20049;-81
2023/04/03 05:56:39;;;;;;;8.93;2.08;;;1.30;99.90;;;;;;5014108;28;20088;-81
2023/04/03 05:59:05;;;;;;;10.52;4.03;;;1.40;99.90;;;;;;4996387;28;20080;-81
2023/04/03 06:01:30;;;;;;;7.25;2.60;;;1.50;99.90;;;;;;4996334;28;20049;-81
2023/04/03 06:03:58;;;;;;;6.78;2.35;;;1.50;99.90;;;;;;4996535;28;20092;-81
2023/04/03 06:06:24;;;;;;;6.50;2.17;;;1.50;99.90;;;;;;4980123;28;20046;-81
2023/04/03 06:08:53;;;;;;;11.52;2.65;;;1.60;99.90;;;;;;5013782;28;20054;-81
2023/04/03 06:11:19;;;;;;;5.07;2.35;;;1.60;99.90;;;;;;4996204;28;20042;-81
2023/04/03 06:13:45;;;;;;;7.63;2.63;;;1.70;99.90;;;;;;4996202;28;20172;-82
2023/04/03 06:16:15;;;;;;;7.75;2.47;;;1.70;99.90;;;;;;4996041;28;20132;-82
2023/04/03 06:18:41;;;;;;;11.85;4.15;;;1.80;99.90;;;;;;4996415;28;20486;-82
2023/04/03 06:21:07;;;;;;;8.85;2.70;;;1.90;99.90;;;;;;4996465;28;20053;-82
2023/04/03 06:23:33;;;;;;;7.15;2.55;;;1.90;99.90;;;;;;4996049;28;20583;-82
2023/04/03 06:26:00;;;;;;;9.80;2.88;;;2.00;99.90;;;;;;4995590;28;20085;-82
2023/04/03 06:28:26;;;;;;;6.07;2.92;;;2.20;99.90;;;;;;4996046;28;20147;-82
2023/04/03 06:30:52;;;;;;;7.40;2.58;;;2.20;99.90;;;;;;4996281;28;20085;-82
2023/04/03 06:33:18;;;;;;;6.70;3.55;;;2.40;99.90;;;;;;4995684;28;20046;-82
2023/04/03 06:35:43;;;;;;;7.93;3.75;;;2.50;99.90;;;;;;4996291;28;20041;-82
2023/04/03 06:38:09;;;;;;;7.05;2.90;;;2.40;99.90;;;;;;4996244;28;20116;-82
2023/04/03 06:40:36;;;;;;;7.10;2.75;;;2.60;99.90;;;;;;5013803;28;20049;-82
2023/04/03 06:43:01;;;;;;;7.93;2.65;;;2.70;99.90;;;;;;4995998;28;20122;-80
2023/04/03 06:45:27;;;;;;;11.02;2.70;;;2.90;99.90;;;;;;5013707;28;20053;-81
2023/04/03 06:47:53;;;;;;;6.32;2.28;;;3.00;99.90;;;;;;4995858;28;20049;-81
2023/04/03 06:50:19;;;;;;;6.72;2.53;;;3.10;99.90;;;;;;4995847;28;20405;-81
2023/04/03 06:52:45;;;;;;;8.60;2.20;;;3.10;99.90;;;;;;4995841;28;20077;-83
2023/04/03 06:55:11;;;;;;;7.65;2.30;;;3.10;99.90;;;;;;4995692;28;20089;-83
2023/04/03 06:57:37;;;;;;;8.07;2.05;;;3.30;99.90;;;;;;4996011;28;20081;-82
2023/04/03 07:00:04;;;;;;;9.23;2.20;;;3.30;99.90;;;;;;5013500;28;20054;-87
2023/04/03 07:02:30;;;;;;;5.60;2.40;;;3.40;99.90;;;;;;5013129;28;20494;-82
2023/04/03 07:04:55;;;;;;;5.90;1.73;;;3.60;99.90;;;;;;4993719;28;20050;-84
2023/04/03 07:07:21;;;;;;;6.10;2.10;;;3.80;99.90;;;;;;5004039;28;20513;-83
2023/04/03 07:09:47;;;;;;;7.90;2.30;;;3.90;99.90;;;;;;4993811;28;20049;-83
2023/04/03 07:12:13;;;;;;;7.07;2.05;;;4.00;99.90;;;;;;4976089;28;20620;-83
2023/04/03 07:14:39;;;;;;;4.32;1.83;;;4.10;99.90;;;;;;4975855;28;20137;-84
2023/04/03 07:17:05;;;;;;;6.95;2.05;;;4.20;99.90;;;;;;4976114;28;20493;-83
2023/04/03 07:19:31;;;;;;;6.78;1.60;;;4.30;99.90;;;;;;4975978;28;20068;-84
2023/04/03 07:21:56;;;;;;;4.88;1.80;;;4.40;99.90;;;;;;4975969;28;20127;-85
2023/04/03 07:24:22;;;;;;;5.63;1.88;;;4.40;99.90;;;;;;4976414;28;20041;-84
2023/04/03 07:26:54;;;;;;;6.22;1.75;;;4.50;99.90;;;;;;4975739;28;20046;-84
2023/04/03 07:29:21;;;;;;;5.47;2.03;;;4.60;99.90;;;;;;4975843;28;20065;-85
2023/04/03 07:31:47;;;;;;;8.18;2.08;;;4.70;99.90;;;;;;4975850;28;20105;-85
2023/04/03 07:34:13;;;;;;;8.25;1.80;;;4.80;99.90;;;;;;4975953;28;20493;-84
2023/04/03 07:36:38;;;;;;;4.72;1.73;;;4.80;99.90;;;;;;4975807;28;20077;-83
2023/04/03 07:39:07;;;;;;;8.98;2.80;;;4.90;99.90;;;;;;4977964;28;20081;-84
2023/04/03 07:41:33;;;;;;;4.43;1.60;;;5.00;99.90;;;;;;4979717;28;20046;-85
2023/04/03 07:43:59;;;;;;;4.75;1.58;;;4.90;99.90;;;;;;4996960;28;20374;-88
2023/04/03 07:46:25;;;;;;;5.50;1.70;;;5.10;99.90;;;;;;4979149;28;20449;-89
2023/04/03 07:48:51;;;;;;;8.48;2.30;;;5.10;99.90;;;;;;4996775;28;20074;-90
2023/04/03 07:51:29;;;;;;;4.38;1.90;;;5.30;99.90;;;;;;4979125;28;20113;-89
2023/04/03 07:53:55;;;;;;;6.80;1.88;;;5.40;99.90;;;;;;4979505;28;20058;-88
2023/04/03 07:56:22;;;;;;;6.80;2.30;;;5.50;99.90;;;;;;4979461;28;20050;-83
2023/04/03 07:58:48;;;;;;;6.50;1.80;;;5.40;99.90;;;;;;4979053;28;20049;-87
2023/04/03 08:01:14;;;;;;;5.55;1.40;;;5.60;99.90;;;;;;4978959;28;20050;-86
2023/04/03 08:03:40;;;;;;;6.93;1.58;;;5.70;99.90;;;;;;4978913;28;20457;-88
2023/04/03 08:06:07;;;;;;;5.88;1.63;;;5.70;99.90;;;;;;4978618;28;20478;-86
2023/04/03 08:08:33;;;;;;;7.70;1.95;;;5.90;99.90;;;;;;4978899;28;20078;-85
2023/04/03 08:11:00;;;;;;;4.38;1.60;;;5.90;99.90;;;;;;4979040;28;20564;-88
2023/04/03 08:13:26;;;;;;;8.80;1.70;;;6.10;99.90;;;;;;4978709;28;20116;-87
2023/04/03 08:15:52;;;;;;;5.93;1.60;;;6.30;99.90;;;;;;4978924;28;20042;-89
2023/04/03 08:18:21;;;;;;;5.95;1.88;;;6.20;99.90;;;;;;4978625;28;20042;-88
2023/04/03 08:20:50;;;;;;;5.35;1.63;;;6.30;99.90;;;;;;4978815;28;20145;-88
2023/04/03 08:23:16;;;;;;;4.70;1.33;;;6.20;99.90;;;;;;4978540;28;20046;-89
2023/04/03 08:25:44;;;;;;;5.25;1.50;;;6.40;99.90;;;;;;4995861;28;20058;-87
2023/04/03 08:28:12;;;;;;;7.03;1.83;;;6.60;99.90;;;;;;4978310;28;20064;-86
2023/04/03 08:30:42;;;;;;;7.47;1.83;;;6.60;99.90;;;;;;4978395;28;20051;-83
2023/04/03 08:33:08;;;;;;;4.97;1.70;;;6.80;99.90;;;;;;4978616;28;20300;-89
2023/04/03 08:35:41;;;;;;;4.50;1.80;;;6.90;99.90;;;;;;4978631;28;20042;-87
2023/04/03 08:38:08;;;;;;;5.95;1.45;;;6.80;99.90;;;;;;4978665;28;20156;-89
2023/04/03 08:40:34;;;;;;;4.25;1.67;;;7.00;99.90;;;;;;4995867;28;20121;-89
2023/04/03 08:43:30;;;;;;;4.82;1.40;;;6.90;99.90;;;;;;4978265;28;20470;-89
2023/04/03 08:45:59;;;;;;;4.32;1.80;;;7.00;99.90;;;;;;4978188;28;20038;-88
2023/04/03 08:48:39;;;;;;;6.80;2.45;;;7.00;99.90;;;;;;4977893;28;20138;-88
2023/04/03 08:51:15;;;;;;;2.85;1.08;;;7.00;99.90;;;;;;4978232;28;20594;-87
2023/04/03 08:53:50;;;;;;;3.72;1.30;;;7.00;99.90;;;;;;4978432;28;20141;-88
2023/04/03 08:56:18;;;;;;;5.53;1.38;;;7.20;99.90;;;;;;4995442;28;20085;-87
2023/04/03 08:58:52;;;;;;;5.18;1.10;;;7.30;99.90;;;;;;4978151;28;20078;-87
2023/04/03 09:01:34;;;;;;;3.05;1.23;;;7.40;99.90;;;;;;4977812;28;20061;-88
2023/04/03 09:04:01;;;;;;;3.78;1.20;;;7.50;99.90;;;;;;4978287;28;20129;-87
2023/04/03 09:06:32;;;;;;;2.63;1.17;;;7.70;99.90;;;;;;4977881;28;20038;-86
2023/04/03 09:09:13;;;;;;;4.05;1.45;;;7.80;99.90;;;;;;4977686;28;20050;-87
2023/04/03 09:11:41;;;;;;;4.10;1.52;;;7.90;99.90;;;;;;4977753;28;20129;-89
2023/04/03 09:14:26;;;;;;;5.95;0.90;;;8.00;99.90;;;;;;4977483;28;20053;-88
2023/04/03 09:17:00;;;;;;;5.68;1.65;;;8.10;99.90;;;;;;4977639;28;20490;-87
2023/04/03 09:19:32;;;;;;;6.25;1.05;;;8.10;99.90;;;;;;4977565;28;20092;-87
2023/04/03 09:22:18;;;;;;;5.47;1.25;;;8.00;99.90;;;;;;4977440;28;20604;-85
2023/04/03 09:24:52;;;;;;;3.72;1.17;;;7.90;99.90;;;;;;4977474;28;20556;-87
2023/04/03 09:27:24;;;;;;;4.57;1.38;;;8.20;99.90;;;;;;4977012;28;20138;-87
2023/04/03 09:29:56;;;;;;;5.22;1.30;;;8.40;99.90;;;;;;4977379;28;20525;-88
2023/04/03 09:32:30;;;;;;;4.13;0.80;;;8.50;99.90;;;;;;4977180;28;20050;-86
2023/04/03 09:35:10;;;;;;;4.07;0.82;;;8.50;99.90;;;;;;4977628;28;20038;-87
2023/04/03 09:37:40;;;;;;;3.42;0.93;;;8.60;99.90;;;;;;4977442;28;20082;-87
2023/04/03 09:40:26;;;;;;;2.92;0.90;;;8.70;99.90;;;;;;4977529;28;20505;-87
2023/04/03 09:42:56;;;;;;;3.28;1.10;;;8.80;99.90;;;;;;4977265;28;20038;-87
2023/04/03 09:45:27;;;;;;;2.72;0.82;;;8.90;99.90;;;;;;4977577;28;20133;-87
2023/04/03 09:48:08;;;;;;;4.28;0.80;;;9.10;99.90;;;;;;4977080;28;20441;-87
2023/04/03 09:50:35;;;;;;;2.70;0.70;;;8.80;99.60;;;;;;4977014;28;20050;-88
2023/04/03 09:53:25;;;;;;;3.33;0.80;;;8.90;99.90;;;;;;4977092;28;20047;-91
2023/04/03 09:55:50;;;;;;;4.85;0.80;;;8.90;99.90;;;;;;4976912;28;20486;-81
2023/04/03 09:58:40;;;;;;;1.80;0.60;;;8.70;99.90;;;;;;4994241;28;20050;-84
2023/04/03 10:01:40;;;;;;;2.63;0.63;;;8.70;99.90;;;;;;4976155;28;20485;-82
2023/04/03 10:04:13;;;;;;;3.42;0.50;;;8.80;98.20;;;;;;4976425;28;20057;-84
2023/04/03 10:06:54;;;;;;;4.38;0.80;;;9.20;99.90;;;;;;4994043;28;20556;-82
2023/04/03 10:09:31;;;;;;;3.08;0.93;;;9.20;99.60;;;;;;4976829;28;20116;-82
2023/04/03 10:12:11;;;;;;;2.45;0.60;;;9.50;98.30;;;;;;4976622;28;20042;-84
2023/04/03 10:14:58;;;;;;;2.45;0.65;;;9.70;99.90;;;;;;4976927;28;20058;-84
2023/04/03 10:17:37;;;;;;;3.00;0.77;;;9.60;95.90;;;;;;4976529;28;20049;-80
2023/04/03 10:20:06;;;;;;;2.78;0.75;;;9.70;97.20;;;;;;4993897;28;20124;-86
2023/04/03 10:22:49;;;;;;;3.22;1.10;;;9.60;96.70;;;;;;4976781;28;20398;-86
2023/04/03 10:25:54;;;;;;;2.83;0.75;;;9.50;96.10;;;;;;4976734;28;20088;-87
2023/04/03 10:28:30;;;;;;;4.15;0.70;;;9.70;96.40;;;;;;4973134;28;20050;-86
2023/04/03 10:31:23;;;;;;;2.40;0.60;;;9.80;97.90;;;;;;4993950;28;20072;-85
2023/04/03 10:34:16;;;;;;;1.25;0.50;;;9.90;96.20;;;;;;4976452;28;20050;-85
2023/04/03 10:37:00;;;;;;;3.20;0.80;;;9.90;95.70;;;;;;4976538;28;20077;-83
2023/04/03 10:39:34;;;;;;;2.45;0.93;;;10.00;96.80;;;;;;4976648;28;20050;-83
2023/04/03 10:42:14;;;;;;;3.17;0.90;;;10.10;95.70;;;;;;4976368;28;20499;-82
2023/04/03 10:45:19;;;;;;;4.03;0.90;;;10.00;95.70;;;;;;4994054;28;20046;-80
2023/04/03 10:48:07;;;;;;;3.35;0.80;;;10.00;96.70;;;;;;4976268;28;20050;-80
2023/04/03 10:51:17;;;;;;;2.85;0.85;;;9.80;96.70;;;;;;4976243;28;20398;-79
2023/04/03 10:54:04;;;;;;;4.50;1.33;;;9.90;98.30;;;;;;4976437;28;20047;-82
2023/04/03 10:56:36;;;;;;;2.88;0.73;;;9.50;99.60;;;;;;4976210;28;20045;-81
2023/04/03 10:59:17;;;;;;;3.80;0.90;;;9.90;99.70;;;;;;4976467;28;20517;-82
2023/04/03 11:01:47;;;;;;;2.65;0.90;;;9.80;99.90;;;;;;4976348;28;20084;-82
2023/04/03 11:04:16;;;;;;;6.25;1.33;;;9.80;98.70;;;;;;4976396;28;20054;-81
2023/04/03 11:06:48;;;;;;;3.97;1.20;;;10.00;99.90;;;;;;4975964;28;20482;-81
2023/04/03 11:09:26;;;;;;;5.15;1.20;;;9.50;99.30;;;;;;4976391;28;20050;-81
2023/04/03 11:11:56;;;;;;;3.45;1.05;;;9.40;99.90;;;;;;4977205;28;20108;-81
2023/04/03 11:14:37;;;;;;;3.78;1.15;;;9.40;98.70;;;;;;4980306;28;20046;-82
2023/04/03 11:17:14;;;;;;;3.15;0.70;;;9.60;99.90;;;;;;4980092;28;20046;-82
2023/04/03 11:19:52;;;;;;;5.78;1.42;;;9.70;99.90;;;;;;4979999;28;20046;-82
2023/04/03 11:22:20;;;;;;;4.50;1.02;;;9.60;99.90;;;;;;4979883;28;20046;-82
2023/04/03 11:25:16;;;;;;;2.80;1.00;;;9.20;99.50;;;;;;4979801;28;20057;-82
2023/04/03 11:27:52;;;;;;;2.85;1.13;;;9.10;99.30;;;;;;4972163;28;20046;-82
2023/04/03 11:30:24;;;;;;;2.45;0.80;;;9.10;99.90;;;;;;4979806;28;20054;-82
2023/04/03 11:33:16;;;;;;;2.75;1.05;;;9.00;99.90;;;;;;4979669;28;20049;-82
2023/04/03 11:35:48;;;;;;;2.63;1.17;;;9.10;99.90;;;;;;4979763;28;20046;-82
2023/04/03 11:38:30;;;;;;;4.05;1.15;;;8.80;98.80;;;;;;4979697;28;20101;-82
2023/04/03 11:40:58;;;;;;;5.37;1.00;;;9.20;99.90;;;;;;4979821;28;20077;-85
2023/04/03 11:43:32;;;;;;;1.90;0.95;;;9.20;99.90;;;;;;4979353;28;20482;-85
2023/04/03 11:46:01;;;;;;;2.42;0.60;;;9.70;99.90;;;;;;4979754;28;20050;-85
2023/04/03 11:48:31;;;;;;;3.10;0.77;;;9.80;99.90;;;;;;4979381;28;20082;-85
2023/04/03 11:51:12;;;;;;;3.58;0.90;;;9.30;99.00;;;;;;4979383;28;20047;-87
2023/04/03 11:53:39;;;;;;;2.65;1.13;;;9.40;99.20;;;;;;4979711;28;20050;-86
2023/04/03 11:56:22;;;;;;;3.17;0.70;;;9.50;99.40;;;;;;4997044;28;20042;-85
2023/04/03 11:59:10;;;;;;;2.03;0.60;;;9.90;99.90;;;;;;4979601;28;20073;-85
2023/04/03 12:01:56;;;;;;;1.70;0.65;;;10.20;99.90;;;;;;4996916;28;20053;-86
2023/04/03 12:04:26;;;;;;;6.40;0.70;;;9.80;99.20;;;;;;4979487;28;20486;-85
2023/04/03 12:07:04;;;;;;;3.45;0.90;;;9.20;99.40;;;;;;4978917;28;20084;-82
2023/04/03 12:09:34;;;;;;;1.95;0.75;;;9.60;99.90;;;;;;4996721;28;20049;-88
2023/04/03 12:12:21;;;;;;;2.17;0.70;;;9.80;98.90;;;;;;4979108;28;20410;-81
2023/04/03 12:14:47;;;;;;;4.90;0.90;;;9.50;99.90;;;;;;4979041;28;20050;-81
2023/04/03 12:17:24;;;;;;;2.22;0.60;;;9.30;99.90;;;;;;4978914;28;20456;-81
2023/04/03 12:19:50;;;;;;;3.63;1.00;;;9.60;99.90;;;;;;4978760;28;20043;-81
2023/04/03 12:22:20;;;;;;;2.90;0.80;;;9.60;99.90;;;;;;4978804;28;20086;-88
2023/04/03 12:24:51;;;;;;;2.17;0.70;;;9.70;99.90;;;;;;4978284;28;20057;-79
2023/04/03 12:27:34;;;;;;;4.75;1.10;;;9.30;99.90;;;;;;4996110;28;20068;-81
2023/04/03 12:30:18;;;;;;;4.07;1.02;;;9.30;99.90;;;;;;4978703;28;20053;-82
2023/04/03 12:33:10;;;;;;;2.70;0.88;;;9.30;99.90;;;;;;4978621;28;20078;-82
2023/04/03 12:35:42;;;;;;;5.15;0.80;;;9.40;99.90;;;;;;4978533;28;20133;-82
2023/04/03 12:38:29;;;;;;;3.03;0.98;;;9.50;99.90;;;;;;4978960;28;20061;-82
2023/04/03 12:41:16;;;;;;;4.03;0.90;;;9.30;99.80;;;;;;4978742;28;20046;-82
2023/04/03 12:43:42;;;;;;;3.83;0.70;;;9.10;99.90;;;;;;4978691;28;20050;-82
2023/04/03 12:46:07;;;;;;;3.45;0.90;;;9.40;99.90;;;;;;4978635;28;20079;-82
2023/04/03 12:48:50;;;;;;;4.22;0.95;;;9.70;99.90;;;;;;4978347;28;20124;-82
2023/04/03 12:51:21;;;;;;;3.45;1.23;;;9.50;99.90;;;;;;4978510;28;20109;-86
2023/04/03 12:53:49;;;;;;;2.72;0.82;;;9.60;98.90;;;;;;4978518;28;20049;-82
2023/04/03 12:56:29;;;;;;;4.65;0.80;;;9.70;99.40;;;;;;4978614;28;20046;-81
2023/04/03 12:59:16;;;;;;;3.30;0.70;;;9.60;98.30;;;;;;4995477;28;20050;-82
2023/04/03 13:01:42;;;;;;;2.97;1.10;;;9.50;99.40;;;;;;4978107;28;20133;-79
2023/04/03 13:04:12;;;;;;;4.57;0.90;;;9.50;97.70;;;;;;4978323;28;20051;-84
2023/04/03 13:06:43;;;;;;;6.80;1.17;;;9.60;99.90;;;;;;4978065;28;20042;-84
2023/04/03 13:09:29;;;;;;;3.40;1.02;;;9.50;98.50;;;;;;4977814;28;20445;-84
2023/04/03 13:12:01;;;;;;;2.63;1.00;;;9.20;98.60;;;;;;4977789;28;20038;-81
2023/04/03 13:14:28;;;;;;;4.97;1.05;;;9.30;98.70;;;;;;4978038;28;20054;-87